DLH846 EDDF-OMDB
Flight info
| Callsign | DLH846 |
|---|---|
| Flight time | N/A |
| Altitude | 37000 |
| Route | CINDY6F CINDY Z74 LAMPU DCT NOMBO Y161 MAH DCT VAVOR DCT RADIZ DCT NIPEL DCT ELTIB DCT GLOMY DCT PETAK DCT DIMIS UL604 SALUN N705 MMA P751 DASUM Y234 EGTIP/N0493F390 Y234 FYM M872 BDB Y214 RAPMA DCT KUVSO DCT KATIT DCT PEKEM M628 RIGIL G783 ELUDA/N0473F350 G783 ASPED Q308 KIPOK Q568 IMPED |
| Aircraft | A388/J-SADE2E3FGHIJ3J4J5M1RWXY/LB1D1 |
Departure
| Time | 2026-04-19 06:36 |
|---|---|
| Airport | Frankfurt Main Airport (EDDF) |
Arrival
| Time | N/A |
|---|---|
| Airport | Dubai International Airport (OMDB) |
| Time | Latitude | Longitude | Altitude | Speed | Heading |
|---|---|---|---|---|---|
| 2026-04-19 05:55 | 50.04749 | 8.56392 | 369 ft | 0 kts | 340° |
| 2026-04-19 06:19 | 50.04747 | 8.56393 | 368 ft | 2 kts | 339° |
| 2026-04-19 06:19 | 50.04723 | 8.56411 | 366 ft | 4 kts | 326° |
| 2026-04-19 06:19 | 50.04703 | 8.56437 | 369 ft | 4 kts | 310° |
| 2026-04-19 06:19 | 50.04689 | 8.56471 | 369 ft | 4 kts | 289° |
| 2026-04-19 06:20 | 50.04685 | 8.56510 | 368 ft | 3 kts | 254° |
| 2026-04-19 06:20 | 50.04685 | 8.56511 | 368 ft | 3 kts | 250° |
| 2026-04-19 06:20 | 50.04676 | 8.56473 | 367 ft | 4 kts | 250° |
| 2026-04-19 06:20 | 50.04666 | 8.56433 | 369 ft | 4 kts | 250° |
| 2026-04-19 06:21 | 50.04659 | 8.56405 | 368 ft | 0 kts | 250° |
| 2026-04-19 06:23 | 50.04659 | 8.56401 | 361 ft | 1 kts | 250° |
| 2026-04-19 06:23 | 50.04652 | 8.56371 | 368 ft | 5 kts | 250° |
| 2026-04-19 06:24 | 50.04636 | 8.56303 | 365 ft | 9 kts | 250° |
| 2026-04-19 06:24 | 50.04611 | 8.56198 | 366 ft | 12 kts | 250° |
| 2026-04-19 06:24 | 50.04579 | 8.56062 | 367 ft | 15 kts | 250° |
| 2026-04-19 06:24 | 50.04541 | 8.55971 | 364 ft | 9 kts | 211° |
| 2026-04-19 06:25 | 50.04467 | 8.55929 | 367 ft | 13 kts | 197° |
| 2026-04-19 06:25 | 50.04386 | 8.55909 | 363 ft | 13 kts | 171° |
| 2026-04-19 06:25 | 50.04346 | 8.55927 | 364 ft | 2 kts | 159° |
| 2026-04-19 06:25 | 50.04312 | 8.55946 | 364 ft | 8 kts | 159° |
| 2026-04-19 06:26 | 50.04255 | 8.55948 | 365 ft | 9 kts | 213° |
| 2026-04-19 06:26 | 50.04218 | 8.55857 | 364 ft | 12 kts | 248° |
| 2026-04-19 06:26 | 50.04188 | 8.55729 | 362 ft | 13 kts | 251° |
| 2026-04-19 06:26 | 50.04172 | 8.55659 | 361 ft | 14 kts | 249° |
| 2026-04-19 06:27 | 50.04141 | 8.55532 | 363 ft | 15 kts | 249° |
| 2026-04-19 06:27 | 50.04102 | 8.55375 | 361 ft | 16 kts | 250° |
| 2026-04-19 06:27 | 50.04065 | 8.55218 | 365 ft | 15 kts | 250° |
| 2026-04-19 06:27 | 50.04028 | 8.55058 | 361 ft | 16 kts | 250° |
| 2026-04-19 06:28 | 50.03987 | 8.54884 | 361 ft | 18 kts | 250° |
| 2026-04-19 06:28 | 50.03942 | 8.54695 | 359 ft | 19 kts | 250° |
| 2026-04-19 06:28 | 50.03896 | 8.54499 | 358 ft | 20 kts | 249° |
| 2026-04-19 06:28 | 50.03853 | 8.54348 | 361 ft | 11 kts | 236° |
| 2026-04-19 06:29 | 50.03806 | 8.54242 | 360 ft | 13 kts | 242° |
| 2026-04-19 06:29 | 50.03771 | 8.54108 | 358 ft | 14 kts | 249° |
| 2026-04-19 06:29 | 50.03735 | 8.53960 | 357 ft | 15 kts | 250° |
| 2026-04-19 06:29 | 50.03699 | 8.53803 | 353 ft | 16 kts | 249° |
| 2026-04-19 06:30 | 50.03660 | 8.53647 | 355 ft | 15 kts | 249° |
| 2026-04-19 06:30 | 50.03626 | 8.53507 | 351 ft | 13 kts | 249° |
| 2026-04-19 06:30 | 50.03592 | 8.53368 | 356 ft | 14 kts | 249° |
| 2026-04-19 06:30 | 50.03558 | 8.53230 | 348 ft | 13 kts | 249° |
| 2026-04-19 06:31 | 50.03525 | 8.53098 | 351 ft | 13 kts | 249° |
| 2026-04-19 06:31 | 50.03495 | 8.52974 | 351 ft | 12 kts | 249° |
| 2026-04-19 06:31 | 50.03466 | 8.52858 | 350 ft | 11 kts | 248° |
| 2026-04-19 06:31 | 50.03442 | 8.52764 | 337 ft | 6 kts | 248° |
| 2026-04-19 06:32 | 50.03441 | 8.52760 | 337 ft | 1 kts | 248° |
| 2026-04-19 06:32 | 50.03435 | 8.52737 | 336 ft | 4 kts | 248° |
| 2026-04-19 06:32 | 50.03421 | 8.52685 | 338 ft | 6 kts | 246° |
| 2026-04-19 06:32 | 50.03397 | 8.52626 | 335 ft | 7 kts | 220° |
| 2026-04-19 06:33 | 50.03355 | 8.52595 | 336 ft | 7 kts | 185° |
| 2026-04-19 06:33 | 50.03333 | 8.52594 | 339 ft | 0 kts | 179° |
| 2026-04-19 06:34 | 50.03332 | 8.52594 | 338 ft | 1 kts | 179° |
| 2026-04-19 06:35 | 50.03318 | 8.52595 | 339 ft | 9 kts | 179° |
| 2026-04-19 06:35 | 50.03011 | 8.52599 | 337 ft | 84 kts | 180° |
| 2026-04-19 06:35 | 50.02196 | 8.52604 | 335 ft | 145 kts | 179° |
| 2026-04-19 06:35 | 50.01053 | 8.52623 | 368 ft | 180 kts | 178° |
| 2026-04-19 06:36 | 49.99812 | 8.52640 | 873 ft | 174 kts | 180° |
| 2026-04-19 06:36 | 49.98559 | 8.52693 | 1294 ft | 186 kts | 179° |
| 2026-04-19 06:36 | 49.97251 | 8.52954 | 1709 ft | 194 kts | 160° |
| 2026-04-19 06:36 | 49.96092 | 8.54037 | 2136 ft | 200 kts | 133° |
| 2026-04-19 06:37 | 49.95285 | 8.55861 | 2355 ft | 211 kts | 115° |
| 2026-04-19 06:37 | 49.94588 | 8.57944 | 2514 ft | 227 kts | 112° |
| 2026-04-19 06:37 | 49.94052 | 8.60312 | 2672 ft | 239 kts | 95° |
| 2026-04-19 06:37 | 49.93964 | 8.62933 | 3277 ft | 246 kts | 86° |
| 2026-04-19 06:38 | 49.93915 | 8.65733 | 3699 ft | 269 kts | 89° |
| 2026-04-19 06:38 | 49.93663 | 8.68652 | 4266 ft | 284 kts | 108° |
| 2026-04-19 06:38 | 49.92633 | 8.71267 | 5112 ft | 284 kts | 136° |
| 2026-04-19 06:38 | 49.91082 | 8.73172 | 5868 ft | 285 kts | 149° |
| 2026-04-19 06:39 | 49.89431 | 8.74819 | 6665 ft | 287 kts | 146° |
| 2026-04-19 06:39 | 49.87981 | 8.77022 | 7400 ft | 294 kts | 129° |
| 2026-04-19 06:39 | 49.86903 | 8.79760 | 8101 ft | 300 kts | 122° |
| 2026-04-19 06:39 | 49.85870 | 8.82603 | 8828 ft | 304 kts | 122° |
| 2026-04-19 06:40 | 49.84840 | 8.85448 | 9551 ft | 307 kts | 123° |
| 2026-04-19 06:40 | 49.83787 | 8.88356 | 10314 ft | 310 kts | 123° |
| 2026-04-19 06:40 | 49.82693 | 8.91354 | 10657 ft | 329 kts | 123° |
| 2026-04-19 06:40 | 49.81527 | 8.94542 | 10831 ft | 347 kts | 123° |
| 2026-04-19 06:41 | 49.80311 | 8.97874 | 11122 ft | 361 kts | 123° |
| 2026-04-19 06:41 | 49.79083 | 9.01253 | 11735 ft | 364 kts | 123° |
| 2026-04-19 06:41 | 49.77833 | 9.04695 | 12380 ft | 367 kts | 123° |
| 2026-04-19 06:41 | 49.76629 | 9.08150 | 12953 ft | 372 kts | 118° |
| 2026-04-19 06:42 | 49.76204 | 9.09706 | 13217 ft | 375 kts | 113° |
| 2026-04-19 06:42 | 49.75661 | 9.12342 | 13643 ft | 379 kts | 107° |
| 2026-04-19 06:42 | 49.74983 | 9.16305 | 14180 ft | 380 kts | 112° |
| 2026-04-19 06:42 | 49.73837 | 9.19959 | 14729 ft | 378 kts | 126° |
| 2026-04-19 06:43 | 49.72245 | 9.23132 | 15278 ft | 376 kts | 136° |
| 2026-04-19 06:43 | 49.70496 | 9.26165 | 15798 ft | 379 kts | 136° |
| 2026-04-19 06:43 | 49.68742 | 9.29247 | 16360 ft | 382 kts | 135° |
| 2026-04-19 06:43 | 49.66976 | 9.32363 | 16914 ft | 386 kts | 135° |
| 2026-04-19 06:44 | 49.65201 | 9.35498 | 17488 ft | 388 kts | 135° |
| 2026-04-19 06:44 | 49.63438 | 9.38595 | 17978 ft | 390 kts | 137° |
| 2026-04-19 06:44 | 49.61468 | 9.41468 | 18459 ft | 388 kts | 146° |
| 2026-04-19 06:44 | 49.59268 | 9.43853 | 18902 ft | 386 kts | 154° |
| 2026-04-19 06:45 | 49.56937 | 9.45943 | 19237 ft | 389 kts | 155° |
| 2026-04-19 06:45 | 49.54585 | 9.48072 | 19647 ft | 392 kts | 154° |
| 2026-04-19 06:45 | 49.52229 | 9.50222 | 20108 ft | 394 kts | 154° |
| 2026-04-19 06:45 | 49.49893 | 9.52358 | 20531 ft | 396 kts | 154° |
| 2026-04-19 06:46 | 49.47515 | 9.54528 | 20940 ft | 399 kts | 154° |
| 2026-04-19 06:46 | 49.45120 | 9.56712 | 21370 ft | 401 kts | 154° |
| 2026-04-19 06:46 | 49.42706 | 9.58908 | 21800 ft | 403 kts | 154° |
| 2026-04-19 06:46 | 49.40304 | 9.61091 | 22208 ft | 406 kts | 154° |
| 2026-04-19 06:47 | 49.37864 | 9.63305 | 22619 ft | 408 kts | 154° |
| 2026-04-19 06:47 | 49.35415 | 9.65560 | 23046 ft | 412 kts | 152° |
| 2026-04-19 06:47 | 49.33099 | 9.68220 | 23350 ft | 421 kts | 144° |
| 2026-04-19 06:47 | 49.30966 | 9.71383 | 23683 ft | 428 kts | 139° |
| 2026-04-19 06:48 | 49.28896 | 9.74598 | 24054 ft | 428 kts | 139° |
| 2026-04-19 06:48 | 49.26776 | 9.77856 | 24438 ft | 430 kts | 140° |
| 2026-04-19 06:48 | 49.24654 | 9.81096 | 24787 ft | 431 kts | 140° |
| 2026-04-19 06:48 | 49.22517 | 9.84346 | 25145 ft | 433 kts | 140° |
| 2026-04-19 06:49 | 49.20397 | 9.87567 | 25545 ft | 435 kts | 140° |
| 2026-04-19 06:49 | 49.18237 | 9.90846 | 25934 ft | 437 kts | 140° |
| 2026-04-19 06:49 | 49.16075 | 9.94124 | 26336 ft | 439 kts | 140° |
| 2026-04-19 06:49 | 49.13885 | 9.97438 | 26728 ft | 441 kts | 141° |
| 2026-04-19 06:50 | 49.11699 | 10.00745 | 27147 ft | 443 kts | 141° |
| 2026-04-19 06:50 | 49.09504 | 10.04059 | 27544 ft | 446 kts | 141° |
| 2026-04-19 06:50 | 49.07315 | 10.07359 | 27889 ft | 449 kts | 141° |
| 2026-04-19 06:50 | 49.05076 | 10.10710 | 28295 ft | 452 kts | 142° |
| 2026-04-19 06:51 | 49.02779 | 10.13991 | 28725 ft | 453 kts | 143° |
| 2026-04-19 06:51 | 49.00450 | 10.17248 | 29135 ft | 455 kts | 142° |
| 2026-04-19 06:51 | 48.98110 | 10.20514 | 29643 ft | 456 kts | 142° |
| 2026-04-19 06:51 | 48.95765 | 10.23799 | 30026 ft | 460 kts | 142° |
| 2026-04-19 06:52 | 48.93405 | 10.27116 | 30396 ft | 463 kts | 142° |
| 2026-04-19 06:52 | 48.91067 | 10.30414 | 30755 ft | 465 kts | 142° |
| 2026-04-19 06:52 | 48.88679 | 10.33782 | 31122 ft | 468 kts | 142° |
| 2026-04-19 06:52 | 48.86271 | 10.37175 | 31488 ft | 471 kts | 142° |
| 2026-04-19 06:53 | 48.83884 | 10.40532 | 31822 ft | 474 kts | 142° |